Terminal Aerodrome Forecast
Issued by NWS Atlanta, GA

Home | Current Version | Previous Version | Text Only | Print | Product List | Glossary On
Versions: 1 2 3 4 5 6 7 8 9 10 11 12 13 14
000
FTUS42 KFFC 250500
TAFCSG
TAF
KCSG 250537Z 2506/2606 21007KT P6SM SCT070
     FM251100 22008KT P6SM VCSH OVC012
     FM251500 23010KT P6SM BKN015
     FM251600 23010KT P6SM SCT035
     FM260100 27007KT P6SM SKC
     FM260400 31005KT P6SM SKC=

USA.gov is the U.S. government's official web portal to all federal, state and local government web resources and services.